sensor_id;sensor_type;location;lat;lon;timestamp;pressure;altitude;pressure_sealevel;temperature;humidity
79077;BME280;68477;42.698;23.342;2023-04-16T00:00:38;94875.53;;;11.60;57.43
79077;BME280;68477;42.698;23.342;2023-04-16T00:03:04;94873.47;;;11.56;57.15
79077;BME280;68477;42.698;23.342;2023-04-16T00:05:29;94871.78;;;11.70;56.93
79077;BME280;68477;42.698;23.342;2023-04-16T00:07:54;94867.69;;;11.67;56.72
79077;BME280;68477;42.698;23.342;2023-04-16T00:10:20;94868.31;;;11.48;57.76
79077;BME280;68477;42.698;23.342;2023-04-16T00:12:46;94862.13;;;11.55;57.60
79077;BME280;68477;42.698;23.342;2023-04-16T00:15:11;94858.34;;;11.64;57.20
79077;BME280;68477;42.698;23.342;2023-04-16T00:17:37;94856.91;;;11.62;57.28
79077;BME280;68477;42.698;23.342;2023-04-16T00:20:02;94862.75;;;11.57;57.67
79077;BME280;68477;42.698;23.342;2023-04-16T00:22:27;94869.44;;;11.60;57.05
79077;BME280;68477;42.698;23.342;2023-04-16T00:24:53;94861.22;;;11.48;57.04
79077;BME280;68477;42.698;23.342;2023-04-16T00:27:18;94861.63;;;11.30;56.94
79077;BME280;68477;42.698;23.342;2023-04-16T00:29:44;94868.19;;;11.20;57.37
79077;BME280;68477;42.698;23.342;2023-04-16T00:32:10;94860.72;;;10.87;58.88
79077;BME280;68477;42.698;23.342;2023-04-16T00:34:36;94874.81;;;10.79;59.16
79077;BME280;68477;42.698;23.342;2023-04-16T00:37:02;94866.72;;;10.96;58.44
79077;BME280;68477;42.698;23.342;2023-04-16T00:39:27;94858.00;;;10.95;58.41
79077;BME280;68477;42.698;23.342;2023-04-16T00:41:52;94860.53;;;11.03;57.97
79077;BME280;68477;42.698;23.342;2023-04-16T00:44:18;94863.34;;;11.02;58.29
79077;BME280;68477;42.698;23.342;2023-04-16T00:46:44;94864.88;;;10.96;57.96
79077;BME280;68477;42.698;23.342;2023-04-16T00:49:10;94860.38;;;10.90;57.34
79077;BME280;68477;42.698;23.342;2023-04-16T00:51:36;94863.00;;;10.90;57.03
79077;BME280;68477;42.698;23.342;2023-04-16T00:54:02;94861.91;;;10.85;56.79
79077;BME280;68477;42.698;23.342;2023-04-16T00:56:28;94863.25;;;10.95;56.35
79077;BME280;68477;42.698;23.342;2023-04-16T00:58:54;94864.72;;;10.83;56.36
79077;BME280;68477;42.698;23.342;2023-04-16T01:01:21;94859.94;;;10.72;55.73
79077;BME280;68477;42.698;23.342;2023-04-16T01:03:48;94858.03;;;10.51;55.30
79077;BME280;68477;42.698;23.342;2023-04-16T01:06:15;94857.97;;;10.44;54.39
79077;BME280;68477;42.698;23.342;2023-04-16T01:08:41;94861.03;;;10.63;54.03
79077;BME280;68477;42.698;23.342;2023-04-16T01:11:12;94856.41;;;10.50;54.33
79077;BME280;68477;42.698;23.342;2023-04-16T01:13:38;94868.34;;;9.85;55.64
79077;BME280;68477;42.698;23.342;2023-04-16T01:16:06;94856.75;;;9.95;55.71
79077;BME280;68477;42.698;23.342;2023-04-16T01:18:32;94859.56;;;9.93;54.44
79077;BME280;68477;42.698;23.342;2023-04-16T01:20:57;94859.41;;;9.72;55.97
79077;BME280;68477;42.698;23.342;2023-04-16T01:23:22;94860.31;;;9.41;54.20
79077;BME280;68477;42.698;23.342;2023-04-16T01:25:48;94860.41;;;9.48;54.90
79077;BME280;68477;42.698;23.342;2023-04-16T01:28:13;94854.78;;;9.74;54.65
79077;BME280;68477;42.698;23.342;2023-04-16T01:30:39;94851.25;;;9.67;54.82
79077;BME280;68477;42.698;23.342;2023-04-16T01:33:04;94853.88;;;9.67;54.00
79077;BME280;68477;42.698;23.342;2023-04-16T01:35:31;94849.47;;;9.44;53.97
79077;BME280;68477;42.698;23.342;2023-04-16T01:37:56;94846.06;;;9.36;54.83
79077;BME280;68477;42.698;23.342;2023-04-16T01:40:22;94850.09;;;9.69;53.53
79077;BME280;68477;42.698;23.342;2023-04-16T01:42:47;94842.03;;;9.71;52.93
79077;BME280;68477;42.698;23.342;2023-04-16T01:45:13;94848.34;;;9.61;54.78
79077;BME280;68477;42.698;23.342;2023-04-16T01:47:39;94840.38;;;9.55;54.62
79077;BME280;68477;42.698;23.342;2023-04-16T01:50:05;94836.63;;;9.26;54.93
79077;BME280;68477;42.698;23.342;2023-04-16T01:52:31;94837.16;;;9.22;55.62
79077;BME280;68477;42.698;23.342;2023-04-16T01:54:56;94832.00;;;9.28;55.52
79077;BME280;68477;42.698;23.342;2023-04-16T01:57:21;94841.66;;;9.05;57.13
79077;BME280;68477;42.698;23.342;2023-04-16T01:59:47;94835.78;;;9.03;56.56
79077;BME280;68477;42.698;23.342;2023-04-16T02:02:14;94839.44;;;8.94;56.76
79077;BME280;68477;42.698;23.342;2023-04-16T02:04:42;94838.72;;;9.08;56.93
79077;BME280;68477;42.698;23.342;2023-04-16T02:07:08;94838.91;;;9.29;55.09
79077;BME280;68477;42.698;23.342;2023-04-16T02:09:39;94838.84;;;9.38;54.95
79077;BME280;68477;42.698;23.342;2023-04-16T02:12:06;94846.47;;;9.47;53.55
79077;BME280;68477;42.698;23.342;2023-04-16T02:14:32;94843.75;;;9.63;52.99
79077;BME280;68477;42.698;23.342;2023-04-16T02:16:58;94838.22;;;9.73;53.23
79077;BME280;68477;42.698;23.342;2023-04-16T02:19:23;94830.34;;;9.73;52.92
79077;BME280;68477;42.698;23.342;2023-04-16T02:21:53;94832.56;;;9.61;52.38
79077;BME280;68477;42.698;23.342;2023-04-16T02:24:20;94836.28;;;9.52;52.60
79077;BME280;68477;42.698;23.342;2023-04-16T02:26:45;94829.81;;;9.63;52.27
79077;BME280;68477;42.698;23.342;2023-04-16T02:29:11;94837.31;;;9.66;52.60
79077;BME280;68477;42.698;23.342;2023-04-16T02:31:37;94829.44;;;9.66;52.63
79077;BME280;68477;42.698;23.342;2023-04-16T02:34:02;94830.66;;;9.78;52.03
79077;BME280;68477;42.698;23.342;2023-04-16T02:36:28;94831.19;;;9.51;52.89
79077;BME280;68477;42.698;23.342;2023-04-16T02:38:54;94836.16;;;9.83;51.82
79077;BME280;68477;42.698;23.342;2023-04-16T02:41:19;94832.13;;;9.58;52.39
79077;BME280;68477;42.698;23.342;2023-04-16T02:43:45;94828.88;;;9.56;52.97
79077;BME280;68477;42.698;23.342;2023-04-16T02:46:11;94828.50;;;9.59;53.41
79077;BME280;68477;42.698;23.342;2023-04-16T02:48:36;94826.06;;;9.57;53.90
79077;BME280;68477;42.698;23.342;2023-04-16T02:51:01;94819.38;;;9.70;53.68
79077;BME280;68477;42.698;23.342;2023-04-16T02:53:27;94818.41;;;9.71;53.59
79077;BME280;68477;42.698;23.342;2023-04-16T02:55:53;94814.97;;;9.70;53.42
79077;BME280;68477;42.698;23.342;2023-04-16T02:58:20;94821.38;;;9.68;53.66
79077;BME280;68477;42.698;23.342;2023-04-16T03:00:46;94814.81;;;9.49;55.20
79077;BME280;68477;42.698;23.342;2023-04-16T03:03:12;94821.19;;;9.31;55.24
79077;BME280;68477;42.698;23.342;2023-04-16T03:05:38;94814.53;;;9.44;54.93
79077;BME280;68477;42.698;23.342;2023-04-16T03:08:03;94817.63;;;9.62;55.11
79077;BME280;68477;42.698;23.342;2023-04-16T03:10:30;94820.94;;;9.64;54.94
79077;BME280;68477;42.698;23.342;2023-04-16T03:12:56;94823.88;;;9.61;55.31
79077;BME280;68477;42.698;23.342;2023-04-16T03:15:22;94823.66;;;9.71;55.84
79077;BME280;68477;42.698;23.342;2023-04-16T03:17:47;94834.88;;;9.65;55.93
79077;BME280;68477;42.698;23.342;2023-04-16T03:20:14;94829.44;;;9.66;56.47
79077;BME280;68477;42.698;23.342;2023-04-16T03:22:41;94831.66;;;9.77;56.21
79077;BME280;68477;42.698;23.342;2023-04-16T03:25:07;94834.47;;;9.90;56.29
79077;BME280;68477;42.698;23.342;2023-04-16T03:27:33;94830.66;;;9.78;56.34
79077;BME280;68477;42.698;23.342;2023-04-16T03:29:59;94838.97;;;9.82;55.27
79077;BME280;68477;42.698;23.342;2023-04-16T03:32:24;94835.91;;;9.78;54.70
79077;BME280;68477;42.698;23.342;2023-04-16T03:34:50;94831.72;;;9.69;54.47
79077;BME280;68477;42.698;23.342;2023-04-16T03:37:16;94834.56;;;9.59;54.63
79077;BME280;68477;42.698;23.342;2023-04-16T03:39:41;94835.06;;;9.63;53.90
79077;BME280;68477;42.698;23.342;2023-04-16T03:42:07;94836.84;;;9.62;52.67
79077;BME280;68477;42.698;23.342;2023-04-16T03:44:32;94842.81;;;9.33;53.63
79077;BME280;68477;42.698;23.342;2023-04-16T03:46:58;94836.13;;;9.31;53.11
79077;BME280;68477;42.698;23.342;2023-04-16T03:49:23;94842.44;;;9.37;52.79
79077;BME280;68477;42.698;23.342;2023-04-16T03:51:49;94844.66;;;9.48;53.60
79077;BME280;68477;42.698;23.342;2023-04-16T03:54:14;94845.47;;;9.48;53.98
79077;BME280;68477;42.698;23.342;2023-04-16T03:56:40;94851.50;;;9.57;53.99
79077;BME280;68477;42.698;23.342;2023-04-16T03:59:06;94843.09;;;9.61;54.07
79077;BME280;68477;42.698;23.342;2023-04-16T04:01:31;94843.44;;;9.58;54.05
79077;BME280;68477;42.698;23.342;2023-04-16T04:03:57;94843.56;;;9.42;53.97
79077;BME280;68477;42.698;23.342;2023-04-16T04:06:22;94844.88;;;9.15;55.13
79077;BME280;68477;42.698;23.342;2023-04-16T04:08:50;94849.63;;;9.20;55.62
79077;BME280;68477;42.698;23.342;2023-04-16T04:11:16;94856.34;;;9.22;55.32
79077;BME280;68477;42.698;23.342;2023-04-16T04:13:43;94858.53;;;8.80;58.12
79077;BME280;68477;42.698;23.342;2023-04-16T04:16:08;94855.84;;;8.96;57.12
79077;BME280;68477;42.698;23.342;2023-04-16T04:18:34;94858.91;;;8.68;58.00
79077;BME280;68477;42.698;23.342;2023-04-16T04:21:04;94859.53;;;8.70;56.16
79077;BME280;68477;42.698;23.342;2023-04-16T04:23:29;94859.66;;;8.85;57.57
79077;BME280;68477;42.698;23.342;2023-04-16T04:25:55;94862.44;;;8.84;57.78
79077;BME280;68477;42.698;23.342;2023-04-16T04:28:20;94864.78;;;9.10;57.40
79077;BME280;68477;42.698;23.342;2023-04-16T04:30:45;94865.44;;;9.03;56.95
79077;BME280;68477;42.698;23.342;2023-04-16T04:33:11;94871.84;;;9.32;57.21
79077;BME280;68477;42.698;23.342;2023-04-16T04:35:36;94872.91;;;9.23;56.88
79077;BME280;68477;42.698;23.342;2023-04-16T04:38:02;94868.28;;;8.94;57.97
79077;BME280;68477;42.698;23.342;2023-04-16T04:40:27;94873.22;;;8.97;57.90
79077;BME280;68477;42.698;23.342;2023-04-16T04:42:53;94881.25;;;8.95;58.67
79077;BME280;68477;42.698;23.342;2023-04-16T04:45:18;94880.13;;;8.90;56.59
79077;BME280;68477;42.698;23.342;2023-04-16T04:47:43;94882.16;;;9.11;55.02
79077;BME280;68477;42.698;23.342;2023-04-16T04:50:09;94885.22;;;9.14;55.30
79077;BME280;68477;42.698;23.342;2023-04-16T04:52:34;94876.25;;;9.09;55.40
79077;BME280;68477;42.698;23.342;2023-04-16T04:55:00;94878.13;;;8.92;55.62
79077;BME280;68477;42.698;23.342;2023-04-16T04:57:26;94883.88;;;8.95;55.05
79077;BME280;68477;42.698;23.342;2023-04-16T04:59:52;94876.72;;;9.12;54.89
79077;BME280;68477;42.698;23.342;2023-04-16T05:02:19;94885.78;;;9.01;55.59
79077;BME280;68477;42.698;23.342;2023-04-16T05:04:44;94883.97;;;9.02;55.18
79077;BME280;68477;42.698;23.342;2023-04-16T05:07:10;94884.56;;;9.20;54.67
79077;BME280;68477;42.698;23.342;2023-04-16T05:09:35;94881.41;;;9.25;53.77
79077;BME280;68477;42.698;23.342;2023-04-16T05:12:01;94879.94;;;9.22;54.83
79077;BME280;68477;42.698;23.342;2023-04-16T05:14:27;94874.28;;;9.11;54.64
79077;BME280;68477;42.698;23.342;2023-04-16T05:16:52;94877.97;;;9.24;55.27
79077;BME280;68477;42.698;23.342;2023-04-16T05:19:18;94880.69;;;9.08;56.57
79077;BME280;68477;42.698;23.342;2023-04-16T05:21:43;94877.28;;;9.53;54.47
79077;BME280;68477;42.698;23.342;2023-04-16T05:24:08;94874.31;;;9.56;54.13
79077;BME280;68477;42.698;23.342;2023-04-16T05:26:34;94878.94;;;9.92;52.48
79077;BME280;68477;42.698;23.342;2023-04-16T05:29:00;94882.22;;;9.71;53.17
79077;BME280;68477;42.698;23.342;2023-04-16T05:31:25;94882.31;;;9.86;53.49
79077;BME280;68477;42.698;23.342;2023-04-16T05:33:50;94878.31;;;9.90;51.81
79077;BME280;68477;42.698;23.342;2023-04-16T05:36:16;94883.03;;;9.95;51.82
79077;BME280;68477;42.698;23.342;2023-04-16T05:38:41;94882.09;;;10.10;52.34
79077;BME280;68477;42.698;23.342;2023-04-16T05:41:06;94889.84;;;10.04;52.82
79077;BME280;68477;42.698;23.342;2023-04-16T05:43:32;94882.50;;;9.99;53.00
79077;BME280;68477;42.698;23.342;2023-04-16T05:45:57;94875.56;;;9.83;54.60
79077;BME280;68477;42.698;23.342;2023-04-16T05:48:23;94877.31;;;9.91;54.04
79077;BME280;68477;42.698;23.342;2023-04-16T05:50:48;94878.50;;;9.88;53.93
79077;BME280;68477;42.698;23.342;2023-04-16T05:53:15;94879.34;;;9.66;53.76
79077;BME280;68477;42.698;23.342;2023-04-16T05:55:43;94879.38;;;9.58;54.64
79077;BME280;68477;42.698;23.342;2023-04-16T05:58:08;94885.75;;;9.86;53.66
79077;BME280;68477;42.698;23.342;2023-04-16T06:00:34;94886.78;;;9.77;53.68
79077;BME280;68477;42.698;23.342;2023-04-16T06:03:00;94877.69;;;9.88;53.58
79077;BME280;68477;42.698;23.342;2023-04-16T06:05:26;94882.31;;;10.24;52.69
79077;BME280;68477;42.698;23.342;2023-04-16T06:07:52;94882.94;;;10.26;53.40
79077;BME280;68477;42.698;23.342;2023-04-16T06:10:17;94882.00;;;10.18;55.04
79077;BME280;68477;42.698;23.342;2023-04-16T06:12:43;94880.47;;;10.09;54.64
79077;BME280;68477;42.698;23.342;2023-04-16T06:15:08;94877.69;;;10.26;52.48
79077;BME280;68477;42.698;23.342;2023-04-16T06:17:34;94872.63;;;10.39;52.68
79077;BME280;68477;42.698;23.342;2023-04-16T06:20:00;94885.88;;;10.75;52.69
79077;BME280;68477;42.698;23.342;2023-04-16T06:22:26;94882.72;;;10.65;52.61
79077;BME280;68477;42.698;23.342;2023-04-16T06:24:52;94881.16;;;10.85;51.53
79077;BME280;68477;42.698;23.342;2023-04-16T06:27:18;94872.44;;;10.99;51.69
79077;BME280;68477;42.698;23.342;2023-04-16T06:29:43;94869.59;;;11.16;51.71
79077;BME280;68477;42.698;23.342;2023-04-16T06:32:09;94863.13;;;11.18;51.63
79077;BME280;68477;42.698;23.342;2023-04-16T06:34:34;94867.00;;;11.37;50.81
79077;BME280;68477;42.698;23.342;2023-04-16T06:37:00;94866.63;;;11.61;50.19
79077;BME280;68477;42.698;23.342;2023-04-16T06:39:25;94869.19;;;11.19;51.39
79077;BME280;68477;42.698;23.342;2023-04-16T06:41:51;94871.44;;;11.36;52.55
79077;BME280;68477;42.698;23.342;2023-04-16T06:44:17;94866.88;;;11.45;52.28
79077;BME280;68477;42.698;23.342;2023-04-16T06:46:42;94865.94;;;11.74;52.09
79077;BME280;68477;42.698;23.342;2023-04-16T06:49:08;94872.41;;;11.72;51.27
79077;BME280;68477;42.698;23.342;2023-04-16T06:51:33;94866.31;;;12.14;51.05
79077;BME280;68477;42.698;23.342;2023-04-16T06:53:59;94864.94;;;11.97;52.11
79077;BME280;68477;42.698;23.342;2023-04-16T06:56:24;94874.44;;;12.19;51.76
79077;BME280;68477;42.698;23.342;2023-04-16T06:58:50;94869.78;;;12.21;52.37
79077;BME280;68477;42.698;23.342;2023-04-16T07:01:16;94870.00;;;12.47;52.78
79077;BME280;68477;42.698;23.342;2023-04-16T07:03:42;94863.44;;;12.37;52.12
79077;BME280;68477;42.698;23.342;2023-04-16T07:06:07;94861.09;;;12.55;50.97
79077;BME280;68477;42.698;23.342;2023-04-16T07:08:33;94860.28;;;12.54;51.30
79077;BME280;68477;42.698;23.342;2023-04-16T07:10:58;94863.38;;;12.58;52.20
79077;BME280;68477;42.698;23.342;2023-04-16T07:13:24;94862.41;;;12.38;51.48
79077;BME280;68477;42.698;23.342;2023-04-16T07:15:50;94861.25;;;12.81;51.20
79077;BME280;68477;42.698;23.342;2023-04-16T07:18:15;94867.44;;;12.61;50.84
79077;BME280;68477;42.698;23.342;2023-04-16T07:20:41;94869.75;;;12.77;50.43
79077;BME280;68477;42.698;23.342;2023-04-16T07:23:06;94864.31;;;12.85;49.57
79077;BME280;68477;42.698;23.342;2023-04-16T07:25:32;94869.34;;;12.73;51.25
79077;BME280;68477;42.698;23.342;2023-04-16T07:27:57;94861.63;;;12.72;50.52
79077;BME280;68477;42.698;23.342;2023-04-16T07:30:22;94866.75;;;12.80;50.90
79077;BME280;68477;42.698;23.342;2023-04-16T07:32:49;94872.34;;;13.05;51.33
79077;BME280;68477;42.698;23.342;2023-04-16T07:35:15;94864.81;;;13.08;49.85
79077;BME280;68477;42.698;23.342;2023-04-16T07:37:40;94859.84;;;13.27;50.26
79077;BME280;68477;42.698;23.342;2023-04-16T07:40:06;94859.50;;;13.36;50.30
79077;BME280;68477;42.698;23.342;2023-04-16T07:42:32;94857.44;;;13.45;49.98
79077;BME280;68477;42.698;23.342;2023-04-16T07:44:57;94866.03;;;13.60;49.14
79077;BME280;68477;42.698;23.342;2023-04-16T07:47:23;94865.00;;;13.55;48.77
79077;BME280;68477;42.698;23.342;2023-04-16T07:49:50;94861.19;;;13.90;48.63
79077;BME280;68477;42.698;23.342;2023-04-16T07:52:16;94859.38;;;13.97;48.39
79077;BME280;68477;42.698;23.342;2023-04-16T07:54:41;94861.41;;;14.02;47.89
79077;BME280;68477;42.698;23.342;2023-04-16T07:57:08;94863.63;;;13.79;48.10
79077;BME280;68477;42.698;23.342;2023-04-16T07:59:33;94866.09;;;13.93;48.29
79077;BME280;68477;42.698;23.342;2023-04-16T08:01:59;94863.84;;;13.97;48.20
79077;BME280;68477;42.698;23.342;2023-04-16T08:04:25;94860.78;;;14.33;47.76
79077;BME280;68477;42.698;23.342;2023-04-16T08:06:50;94862.22;;;14.49;45.78
79077;BME280;68477;42.698;23.342;2023-04-16T08:09:16;94871.59;;;14.45;46.43
79077;BME280;68477;42.698;23.342;2023-04-16T08:11:41;94858.34;;;14.32;48.49
79077;BME280;68477;42.698;23.342;2023-04-16T08:14:07;94858.13;;;14.73;47.18
79077;BME280;68477;42.698;23.342;2023-04-16T08:16:33;94850.53;;;14.90;46.93
79077;BME280;68477;42.698;23.342;2023-04-16T08:18:58;94850.63;;;15.66;46.13
79077;BME280;68477;42.698;23.342;2023-04-16T08:21:25;94852.69;;;15.51;45.01
79077;BME280;68477;42.698;23.342;2023-04-16T08:23:52;94848.56;;;15.68;43.95
79077;BME280;68477;42.698;23.342;2023-04-16T08:26:18;94847.97;;;15.97;44.05
79077;BME280;68477;42.698;23.342;2023-04-16T08:28:43;94851.63;;;15.96;44.26
79077;BME280;68477;42.698;23.342;2023-04-16T08:31:08;94846.06;;;16.54;41.83
79077;BME280;68477;42.698;23.342;2023-04-16T08:33:34;94845.56;;;16.39;42.22
79077;BME280;68477;42.698;23.342;2023-04-16T08:35:59;94836.13;;;16.25;41.53
79077;BME280;68477;42.698;23.342;2023-04-16T08:38:25;94833.16;;;15.52;44.15
79077;BME280;68477;42.698;23.342;2023-04-16T08:40:52;94831.53;;;15.82;42.47
79077;BME280;68477;42.698;23.342;2023-04-16T08:43:21;94837.25;;;16.36;43.20
79077;BME280;68477;42.698;23.342;2023-04-16T08:45:48;94827.44;;;16.79;41.50
79077;BME280;68477;42.698;23.342;2023-04-16T08:48:15;94827.88;;;16.95;41.29
79077;BME280;68477;42.698;23.342;2023-04-16T08:50:40;94830.66;;;17.18;41.25
79077;BME280;68477;42.698;23.342;2023-04-16T08:53:10;94824.38;;;17.31;41.11
79077;BME280;68477;42.698;23.342;2023-04-16T08:55:46;94826.84;;;17.44;41.74
79077;BME280;68477;42.698;23.342;2023-04-16T08:58:20;94827.47;;;17.46;40.13
79077;BME280;68477;42.698;23.342;2023-04-16T09:00:47;94822.19;;;17.09;39.29
79077;BME280;68477;42.698;23.342;2023-04-16T09:03:14;94819.69;;;16.96;38.75
79077;BME280;68477;42.698;23.342;2023-04-16T09:05:41;94810.19;;;16.70;39.17
79077;BME280;68477;42.698;23.342;2023-04-16T09:08:07;94814.19;;;17.28;40.74
79077;BME280;68477;42.698;23.342;2023-04-16T09:10:33;94814.06;;;17.23;38.79
79077;BME280;68477;42.698;23.342;2023-04-16T09:12:59;94806.78;;;17.00;39.28
79077;BME280;68477;42.698;23.342;2023-04-16T09:15:25;94803.09;;;17.01;41.03
79077;BME280;68477;42.698;23.342;2023-04-16T09:17:51;94812.84;;;16.70;41.10
79077;BME280;68477;42.698;23.342;2023-04-16T09:20:17;94807.06;;;17.40;38.99
79077;BME280;68477;42.698;23.342;2023-04-16T09:22:43;94803.09;;;17.79;38.32
79077;BME280;68477;42.698;23.342;2023-04-16T09:25:09;94807.44;;;17.73;38.53
79077;BME280;68477;42.698;23.342;2023-04-16T09:27:35;94803.22;;;17.96;38.01
79077;BME280;68477;42.698;23.342;2023-04-16T09:30:17;94806.47;;;17.56;37.59
79077;BME280;68477;42.698;23.342;2023-04-16T09:32:46;94809.97;;;18.22;37.18
79077;BME280;68477;42.698;23.342;2023-04-16T09:35:11;94808.94;;;18.46;36.38
79077;BME280;68477;42.698;23.342;2023-04-16T09:37:37;94805.94;;;18.66;35.48
79077;BME280;68477;42.698;23.342;2023-04-16T09:40:03;94799.59;;;19.19;36.09
79077;BME280;68477;42.698;23.342;2023-04-16T09:42:31;94801.84;;;19.39;34.75
79077;BME280;68477;42.698;23.342;2023-04-16T09:44:58;94797.66;;;19.43;34.30
79077;BME280;68477;42.698;23.342;2023-04-16T09:47:43;94795.31;;;19.18;33.65
79077;BME280;68477;42.698;23.342;2023-04-16T09:50:14;94792.06;;;19.44;34.71
79077;BME280;68477;42.698;23.342;2023-04-16T09:52:42;94791.06;;;19.34;33.69
79077;BME280;68477;42.698;23.342;2023-04-16T09:55:07;94782.47;;;19.15;36.13
79077;BME280;68477;42.698;23.342;2023-04-16T09:57:36;94790.25;;;19.05;33.40
79077;BME280;68477;42.698;23.342;2023-04-16T10:00:06;94788.88;;;18.79;34.43
79077;BME280;68477;42.698;23.342;2023-04-16T10:02:33;94781.97;;;18.43;34.69
79077;BME280;68477;42.698;23.342;2023-04-16T10:05:00;94780.91;;;18.67;36.16
79077;BME280;68477;42.698;23.342;2023-04-16T10:07:27;94777.44;;;18.78;36.82
79077;BME280;68477;42.698;23.342;2023-04-16T10:09:53;94773.28;;;18.59;36.63
79077;BME280;68477;42.698;23.342;2023-04-16T10:12:20;94774.66;;;18.03;36.32
79077;BME280;68477;42.698;23.342;2023-04-16T10:14:45;94770.25;;;18.44;38.29
79077;BME280;68477;42.698;23.342;2023-04-16T10:17:11;94768.78;;;18.48;35.95
79077;BME280;68477;42.698;23.342;2023-04-16T10:19:38;94769.31;;;18.61;35.09
79077;BME280;68477;42.698;23.342;2023-04-16T10:22:03;94766.91;;;18.72;35.29
79077;BME280;68477;42.698;23.342;2023-04-16T10:24:30;94767.72;;;18.60;36.39
79077;BME280;68477;42.698;23.342;2023-04-16T10:26:56;94762.28;;;18.44;36.12
79077;BME280;68477;42.698;23.342;2023-04-16T10:29:22;94756.72;;;18.45;36.93
79077;BME280;68477;42.698;23.342;2023-04-16T10:31:49;94755.22;;;18.38;36.39
79077;BME280;68477;42.698;23.342;2023-04-16T10:34:15;94756.84;;;18.03;38.54
79077;BME280;68477;42.698;23.342;2023-04-16T10:36:41;94750.16;;;18.01;38.12
79077;BME280;68477;42.698;23.342;2023-04-16T10:39:11;94746.53;;;18.30;37.45
79077;BME280;68477;42.698;23.342;2023-04-16T10:41:39;94742.38;;;18.11;35.79
79077;BME280;68477;42.698;23.342;2023-04-16T10:44:07;94745.22;;;18.80;35.54
79077;BME280;68477;42.698;23.342;2023-04-16T10:46:41;94750.63;;;19.99;33.97
79077;BME280;68477;42.698;23.342;2023-04-16T10:49:32;94754.19;;;20.60;33.22
79077;BME280;68477;42.698;23.342;2023-04-16T10:52:06;94746.06;;;20.72;31.78
79077;BME280;68477;42.698;23.342;2023-04-16T10:54:34;94744.53;;;20.54;33.03
79077;BME280;68477;42.698;23.342;2023-04-16T10:57:06;94746.44;;;20.58;32.43
79077;BME280;68477;42.698;23.342;2023-04-16T10:59:33;94741.06;;;20.03;33.02
79077;BME280;68477;42.698;23.342;2023-04-16T11:02:01;94740.81;;;20.99;32.08
79077;BME280;68477;42.698;23.342;2023-04-16T11:04:35;94737.47;;;21.30;30.72
79077;BME280;68477;42.698;23.342;2023-04-16T11:07:17;94736.31;;;20.82;31.86
79077;BME280;68477;42.698;23.342;2023-04-16T11:12:19;94727.19;;;20.40;30.86
79077;BME280;68477;42.698;23.342;2023-04-16T11:14:53;94730.94;;;20.39;31.53
79077;BME280;68477;42.698;23.342;2023-04-16T11:17:19;94722.66;;;20.40;31.90
79077;BME280;68477;42.698;23.342;2023-04-16T11:19:45;94715.56;;;20.68;31.54
79077;BME280;68477;42.698;23.342;2023-04-16T11:22:13;94711.84;;;20.69;30.39
79077;BME280;68477;42.698;23.342;2023-04-16T11:24:39;94721.22;;;20.32;31.98
79077;BME280;68477;42.698;23.342;2023-04-16T11:27:06;94714.75;;;20.89;31.84
79077;BME280;68477;42.698;23.342;2023-04-16T11:29:32;94712.25;;;20.60;30.47
79077;BME280;68477;42.698;23.342;2023-04-16T11:31:57;94707.50;;;20.07;32.27
79077;BME280;68477;42.698;23.342;2023-04-16T11:34:23;94705.53;;;20.19;32.17
79077;BME280;68477;42.698;23.342;2023-04-16T11:36:50;94704.03;;;20.06;32.81
79077;BME280;68477;42.698;23.342;2023-04-16T11:39:17;94693.25;;;20.18;31.60
79077;BME280;68477;42.698;23.342;2023-04-16T11:41:49;94689.16;;;19.94;32.88
79077;BME280;68477;42.698;23.342;2023-04-16T11:44:26;94690.03;;;19.83;32.76
79077;BME280;68477;42.698;23.342;2023-04-16T11:46:52;94684.38;;;19.62;33.82
79077;BME280;68477;42.698;23.342;2023-04-16T11:49:30;94685.13;;;19.46;34.34
79077;BME280;68477;42.698;23.342;2023-04-16T11:51:56;94681.19;;;19.48;33.63
79077;BME280;68477;42.698;23.342;2023-04-16T11:54:22;94678.13;;;19.11;35.62
79077;BME280;68477;42.698;23.342;2023-04-16T11:56:49;94681.88;;;18.82;35.83
79077;BME280;68477;42.698;23.342;2023-04-16T11:59:16;94684.28;;;19.12;35.77
79077;BME280;68477;42.698;23.342;2023-04-16T12:01:49;94663.59;;;19.19;35.05
79077;BME280;68477;42.698;23.342;2023-04-16T12:04:15;94657.97;;;19.32;33.32
79077;BME280;68477;42.698;23.342;2023-04-16T12:07:10;94658.81;;;19.83;34.11
79077;BME280;68477;42.698;23.342;2023-04-16T12:09:38;94658.03;;;19.83;35.17
79077;BME280;68477;42.698;23.342;2023-04-16T12:12:04;94658.78;;;20.17;32.54
79077;BME280;68477;42.698;23.342;2023-04-16T12:14:30;94657.66;;;20.34;33.57
79077;BME280;68477;42.698;23.342;2023-04-16T12:17:14;94648.91;;;20.17;31.49
79077;BME280;68477;42.698;23.342;2023-04-16T12:19:50;94638.66;;;20.31;31.45
79077;BME280;68477;42.698;23.342;2023-04-16T12:22:17;94643.53;;;20.56;31.52
79077;BME280;68477;42.698;23.342;2023-04-16T12:24:42;94639.69;;;20.47;30.89
79077;BME280;68477;42.698;23.342;2023-04-16T12:27:08;94633.69;;;20.18;33.02
79077;BME280;68477;42.698;23.342;2023-04-16T12:29:35;94636.94;;;20.03;31.31
79077;BME280;68477;42.698;23.342;2023-04-16T12:32:02;94630.03;;;19.68;31.99
79077;BME280;68477;42.698;23.342;2023-04-16T12:34:28;94633.50;;;18.90;34.40
79077;BME280;68477;42.698;23.342;2023-04-16T12:37:06;94625.47;;;19.18;32.64
79077;BME280;68477;42.698;23.342;2023-04-16T12:39:35;94625.38;;;19.13;33.23
79077;BME280;68477;42.698;23.342;2023-04-16T12:42:08;94618.78;;;19.16;32.67
79077;BME280;68477;42.698;23.342;2023-04-16T12:44:35;94622.38;;;19.10;33.65
79077;BME280;68477;42.698;23.342;2023-04-16T12:47:00;94622.13;;;18.95;34.25
79077;BME280;68477;42.698;23.342;2023-04-16T12:49:26;94620.03;;;18.97;35.83
79077;BME280;68477;42.698;23.342;2023-04-16T12:51:51;94623.50;;;18.69;35.40